createdAt,value
2018-06-21T13:07:07.888Z,58.20
2018-06-21T13:09:47.459Z,61.40
2018-06-21T13:12:29.301Z,57.20
2018-06-21T13:14:57.846Z,58.10
2018-06-21T13:17:27.345Z,58.00
2018-06-21T13:19:55.980Z,56.60
2018-06-21T13:22:24.535Z,57.60
2018-06-21T13:24:53.108Z,58.50
2018-06-21T13:27:21.375Z,59.90
2018-06-21T13:29:49.723Z,60.00
2018-06-21T13:32:18.545Z,58.60
2018-06-21T13:34:46.773Z,58.60
2018-06-21T13:37:15.097Z,58.80
2018-06-21T13:39:43.704Z,58.30
2018-06-21T13:42:12.075Z,58.10
2018-06-21T13:44:40.416Z,60.20
2018-06-21T13:47:08.737Z,57.80
2018-06-21T13:49:37.009Z,57.90
2018-06-21T13:52:05.272Z,60.10
2018-06-21T13:54:33.572Z,60.80
2018-06-21T13:57:01.914Z,60.10
2018-06-21T13:59:30.338Z,61.00
2018-06-21T14:01:58.620Z,58.90
2018-06-21T14:06:55.044Z,57.00
2018-06-21T14:09:23.376Z,57.50
2018-06-21T14:11:51.672Z,59.40
2018-06-21T14:14:19.942Z,61.20
2018-06-21T14:16:48.217Z,63.00
2018-06-21T14:19:16.496Z,60.70
2018-06-21T14:21:44.839Z,57.50
2018-06-21T14:24:14.196Z,59.30
2018-06-21T14:26:42.980Z,57.90
2018-06-21T14:29:11.444Z,56.90
2018-06-21T14:31:39.920Z,59.10
2018-06-21T14:34:08.298Z,59.20
2018-06-21T14:36:36.685Z,56.80
2018-06-21T14:39:07.786Z,56.30
2018-06-21T14:41:36.503Z,57.00
2018-06-21T14:44:04.967Z,59.00
2018-06-21T14:46:33.723Z,58.40
2018-06-21T14:51:30.277Z,60.20
2018-06-21T14:53:58.764Z,59.20
2018-06-21T14:56:27.205Z,59.20
2018-06-21T14:58:55.530Z,58.60
2018-06-21T15:01:23.944Z,58.30
2018-06-21T15:03:52.523Z,60.40
2018-06-21T15:06:21.455Z,59.30
2018-06-21T15:08:50.117Z,59.70
2018-06-21T15:13:48.765Z,59.70
2018-06-21T15:16:18.649Z,59.50
2018-06-21T15:18:46.992Z,60.30
2018-06-21T15:21:15.533Z,58.90
2018-06-21T15:23:43.854Z,59.20
2018-06-21T15:26:12.292Z,59.80
2018-06-21T15:28:40.743Z,59.40
2018-06-21T15:31:09.018Z,59.90
2018-06-21T15:33:37.391Z,60.70
2018-06-21T15:36:05.721Z,63.10
2018-06-21T15:38:34.118Z,60.30
2018-06-21T15:41:02.460Z,61.40
2018-06-21T15:43:30.856Z,60.60
2018-06-21T15:45:59.176Z,60.40
2018-06-21T15:48:27.480Z,59.60
2018-06-21T15:50:55.813Z,60.40
2018-06-21T15:53:24.128Z,62.00
2018-06-21T15:55:52.457Z,62.00
2018-06-21T15:58:20.768Z,65.50
2018-06-21T16:00:49.055Z,64.30
2018-06-21T16:03:17.327Z,63.60
2018-06-21T16:05:45.662Z,63.80
2018-06-21T16:08:13.927Z,64.40
2018-06-21T16:13:10.268Z,65.80
2018-06-21T16:18:06.566Z,65.40
2018-06-21T16:20:34.908Z,65.40
2018-06-21T16:23:03.156Z,67.40
2018-06-21T16:25:31.440Z,69.60
2018-06-21T16:30:34.809Z,68.30
2018-06-21T16:33:03.282Z,69.10
2018-06-21T16:35:31.867Z,68.70
2018-06-21T16:38:00.622Z,68.30
2018-06-21T16:40:29.218Z,69.60
2018-06-21T16:42:58.268Z,71.00
2018-06-21T16:47:54.811Z,71.90
2018-06-21T16:50:23.244Z,71.50
2018-06-21T16:52:51.515Z,71.80
2018-06-21T16:55:19.779Z,72.60
2018-06-21T16:57:48.141Z,73.70
2018-06-21T17:00:16.550Z,72.50
2018-06-21T17:02:44.829Z,70.50
2018-06-21T17:05:13.829Z,69.90
2018-06-21T17:07:42.459Z,71.80
2018-06-21T17:10:10.743Z,71.30
2018-06-21T17:12:39.018Z,70.40
2018-06-21T17:15:07.763Z,73.00
2018-06-21T17:17:36.112Z,74.20
2018-06-21T17:20:04.440Z,74.40
2018-06-21T17:22:32.745Z,74.90
2018-06-21T17:25:01.079Z,75.60
2018-06-21T17:27:29.363Z,76.70
2018-06-21T17:29:58.020Z,72.50
2018-06-21T17:32:26.293Z,72.10
2018-06-21T17:34:54.591Z,73.20
2018-06-21T17:37:22.933Z,74.70
2018-06-21T17:39:51.179Z,77.00
2018-06-21T17:42:19.438Z,77.20
2018-06-21T17:44:47.846Z,78.50
2018-06-21T17:47:16.147Z,78.10
2018-06-21T17:49:44.414Z,78.90
2018-06-21T17:52:12.737Z,78.10
2018-06-21T17:54:41.348Z,79.10
2018-06-21T17:59:37.651Z,81.10
2018-06-21T18:02:05.952Z,78.90
2018-06-21T18:04:34.272Z,79.80
2018-06-21T18:07:02.535Z,80.60
2018-06-21T18:09:33.907Z,80.80
2018-06-21T18:12:02.267Z,82.90
2018-06-21T18:16:58.755Z,85.10
2018-06-21T18:19:27.040Z,85.20
2018-06-21T18:21:55.356Z,86.20
2018-06-21T18:24:23.654Z,86.60
2018-06-21T18:29:20.385Z,86.70
2018-06-21T18:31:48.828Z,88.50
2018-06-21T18:34:17.339Z,88.10
2018-06-21T18:36:45.836Z,89.00
2018-06-21T18:39:14.456Z,88.70
2018-06-21T18:41:42.877Z,90.00
2018-06-21T18:44:11.462Z,90.20
2018-06-21T18:46:39.847Z,90.30
2018-06-21T18:49:08.283Z,90.80
2018-06-21T18:51:36.574Z,90.80
2018-06-21T18:54:04.970Z,91.20
2018-06-21T18:56:33.367Z,91.80
2018-06-21T18:59:01.704Z,91.70
2018-06-21T19:01:29.995Z,92.00
2018-06-21T19:03:58.562Z,92.00
2018-06-21T19:06:32.279Z,92.50
2018-06-21T19:09:06.066Z,93.10
2018-06-21T19:11:39.813Z,93.60
2018-06-21T19:14:08.362Z,94.00
2018-06-21T19:16:37.320Z,93.40
2018-06-21T19:19:06.470Z,93.40
2018-06-21T19:21:35.230Z,93.60
2018-06-21T19:24:03.653Z,93.20
2018-06-21T19:26:32.256Z,94.10
2018-06-21T19:29:00.656Z,94.40
2018-06-21T19:31:29.101Z,94.90
2018-06-21T19:33:57.431Z,94.80
2018-06-21T19:36:25.876Z,95.80
2018-06-21T19:38:54.364Z,95.80
2018-06-21T19:41:23.673Z,96.00
2018-06-21T19:43:52.065Z,96.60
2018-06-21T19:46:20.400Z,96.00
2018-06-21T19:51:17.124Z,96.90
2018-06-21T19:53:45.694Z,97.10
2018-06-21T19:56:14.020Z,97.60
2018-06-21T19:58:42.429Z,97.80
2018-06-21T20:01:10.766Z,97.70
2018-06-21T20:03:39.087Z,97.40
2018-06-21T20:06:07.517Z,97.10
2018-06-21T20:08:35.890Z,97.20
2018-06-21T20:11:40.226Z,98.00
2018-06-21T20:14:08.571Z,97.60
2018-06-21T20:16:36.911Z,97.90
2018-06-21T20:19:13.331Z,98.10
2018-06-21T20:21:41.632Z,97.90
2018-06-21T20:24:10.039Z,98.50
2018-06-21T20:26:38.439Z,98.90
2018-06-21T20:29:11.983Z,99.60
2018-06-21T20:31:40.780Z,99.60
2018-06-21T20:36:37.131Z,99.90
2018-06-21T20:41:34.994Z,99.90
2018-06-21T20:44:03.992Z,99.90
2018-06-21T20:46:32.448Z,99.90
2018-06-21T20:49:00.776Z,99.90
2018-06-21T20:51:29.071Z,99.90
2018-06-21T20:53:57.356Z,99.90
2018-06-21T20:56:25.712Z,99.90
2018-06-21T20:58:54.060Z,99.90
2018-06-21T21:01:22.422Z,99.90
2018-06-21T21:03:50.748Z,99.90
2018-06-21T21:06:19.031Z,99.90
2018-06-21T21:08:47.305Z,99.90
2018-06-21T21:11:15.579Z,99.90
2018-06-21T21:13:43.829Z,99.90
2018-06-21T21:16:12.095Z,99.90
2018-06-21T21:18:40.338Z,99.90
2018-06-21T21:21:08.667Z,99.90
2018-06-21T21:23:36.973Z,99.90
2018-06-21T21:26:05.307Z,99.90
2018-06-21T21:28:33.609Z,99.90
2018-06-21T21:31:01.889Z,99.90
2018-06-21T21:33:30.125Z,99.90
2018-06-21T21:35:58.445Z,99.90
2018-06-21T21:38:26.729Z,99.90
2018-06-21T21:40:54.986Z,99.90
2018-06-21T21:43:23.235Z,99.90
2018-06-21T21:45:51.481Z,99.90
2018-06-21T21:48:19.716Z,99.90
2018-06-21T21:50:51.508Z,99.90
2018-06-21T21:53:19.735Z,99.90
2018-06-21T21:55:48.053Z,99.90
2018-06-21T21:58:16.342Z,99.90
2018-06-21T22:00:56.790Z,99.90
2018-06-21T22:03:25.033Z,99.90
2018-06-21T22:05:53.271Z,99.90
2018-06-21T22:08:21.568Z,99.90
2018-06-21T22:13:18.240Z,99.90
2018-06-21T22:15:46.377Z,99.90
2018-06-21T22:18:14.631Z,99.90
2018-06-21T22:20:42.892Z,99.90
2018-06-21T22:23:11.162Z,99.90
2018-06-21T22:25:39.432Z,99.90
2018-06-21T22:28:07.678Z,99.90
2018-06-21T22:30:35.943Z,99.90
2018-06-21T22:33:04.153Z,99.90
2018-06-21T22:35:32.419Z,99.90
2018-06-21T22:38:00.718Z,99.90
2018-06-21T22:40:29.012Z,99.90
2018-06-21T22:42:57.247Z,99.90
2018-06-21T22:45:25.543Z,99.90
2018-06-21T22:47:53.775Z,99.90
2018-06-21T22:50:22.012Z,99.90
2018-06-21T22:52:50.352Z,99.90
2018-06-21T22:55:18.656Z,99.90
2018-06-21T22:57:46.991Z,99.90
2018-06-21T23:00:16.745Z,99.90
2018-06-21T23:02:45.169Z,99.90
2018-06-21T23:05:13.551Z,99.90
2018-06-21T23:07:41.939Z,99.90
2018-06-21T23:10:10.243Z,99.90
2018-06-21T23:12:38.495Z,99.90
2018-06-21T23:17:34.783Z,99.90
2018-06-21T23:20:03.117Z,99.90
2018-06-21T23:22:31.385Z,99.90
2018-06-21T23:24:59.632Z,99.90
2018-06-21T23:27:27.967Z,99.90
2018-06-21T23:29:56.184Z,99.90
2018-06-21T23:32:24.436Z,99.90
2018-06-21T23:34:52.729Z,99.90
2018-06-21T23:37:20.986Z,99.90
2018-06-21T23:39:49.239Z,99.90
2018-06-21T23:42:17.525Z,99.90
2018-06-21T23:44:45.810Z,99.90
2018-06-21T23:47:14.052Z,99.90
2018-06-21T23:52:10.312Z,99.90
2018-06-21T23:54:38.572Z,99.90
2018-06-21T23:57:06.817Z,99.90
2018-06-21T23:59:35.095Z,99.90
